Time;durP1;ratioP1;P1;durP2;ratioP2;P2;SDS_P1;SDS_P2;PMS_P1;PMS_P2;Temp;Humidity;BMP_temperature;BMP_pressure;BME280_temperature;BME280_humidity;BME280_pressure;Samples;Min_cycle;Max_cycle;Signal;HPM_P1;HPM_P2
2023/07/13 00:02:11;;;;;;;6.30;5.00;;;;;;;-141.84;44.00;22001.28;4888331;28;20239;-64
2023/07/13 00:04:40;;;;;;;5.10;4.38;;;;;;;-141.84;44.17;21985.00;4879430;29;20230;-64
2023/07/13 00:07:08;;;;;;;6.88;4.95;;;;;;;-141.84;44.26;22001.28;4888836;29;20231;-65
2023/07/13 00:09:37;;;;;;;5.22;4.45;;;;;;;-141.84;44.64;21956.53;4903626;29;20243;-64
2023/07/13 00:12:24;;;;;;;6.15;4.82;;;;;;;-141.84;45.10;21946.38;4907167;29;20218;-64
2023/07/13 00:14:52;;;;;;;4.78;4.13;;;;;;;-141.84;45.31;21895.53;4899922;29;20699;-64
2023/07/13 00:17:21;;;;;;;3.97;3.30;;;;;;;-141.84;45.41;21913.84;4888350;29;20246;-63
2023/07/13 00:19:50;;;;;;;3.85;3.22;;;;;;;-141.84;45.37;21911.78;4888794;29;20727;-63
2023/07/13 00:22:18;;;;;;;3.53;2.28;;;;;;;-141.84;45.47;21924.00;4888519;29;20810;-65
2023/07/13 00:24:47;;;;;;;3.35;2.03;;;;;;;-141.84;44.77;21958.56;4882093;29;20234;-64
2023/07/13 00:27:17;;;;;;;2.78;2.05;;;;;;;-141.84;44.76;21956.53;4892268;29;20230;-65
2023/07/13 00:29:46;;;;;;;2.95;2.05;;;;;;;-141.84;44.84;21962.63;4907761;29;20746;-65
2023/07/13 00:32:15;;;;;;;2.78;1.92;;;;;;;-141.84;45.06;21921.97;4907069;29;20761;-64
2023/07/13 00:34:43;;;;;;;2.13;1.50;;;;;;;-141.84;45.28;21911.78;4895061;29;20242;-64
2023/07/13 00:37:12;;;;;;;3.47;1.73;;;;;;;-141.84;44.92;21901.63;4887935;29;20540;-64
2023/07/13 00:39:40;;;;;;;3.38;1.50;;;;;;;-141.84;45.25;21891.47;4888221;29;20309;-63
2023/07/13 00:42:09;;;;;;;2.45;1.70;;;;;;;-141.84;45.36;21875.19;4888344;29;20297;-64
2023/07/13 00:44:39;;;;;;;2.17;1.75;;;;;;;-141.84;44.93;21899.59;4881456;29;20302;-65
2023/07/13 00:47:08;;;;;;;2.50;1.70;;;;;;;-141.84;45.46;21875.19;4888076;29;20246;-64
2023/07/13 00:49:37;;;;;;;2.90;1.70;;;;;;;-141.84;45.25;21919.94;4888234;29;20325;-64
2023/07/13 00:52:09;;;;;;;2.47;1.63;;;;;;;-141.84;44.40;21964.66;4887662;29;20261;-65
2023/07/13 00:54:42;;;;;;;2.55;1.80;;;;;;;-141.84;43.35;22011.44;4880293;29;20755;-64
2023/07/13 00:57:15;;;;;;;2.95;1.85;;;;;;;-141.84;43.56;21960.59;4888178;29;20310;-65
2023/07/13 00:59:51;;;;;;;2.38;1.65;;;;;;;-141.84;43.88;21940.25;4889043;29;20271;-64
2023/07/13 01:02:21;;;;;;;1.90;1.70;;;;;;;-141.84;44.39;21913.84;4887824;29;20234;-65
2023/07/13 01:04:50;;;;;;;2.00;1.50;;;;;;;-141.84;44.52;21950.44;4882376;29;20239;-64
2023/07/13 01:07:20;;;;;;;2.70;1.45;;;;;;;-141.84;44.33;21940.25;4887727;29;20730;-64
2023/07/13 01:09:48;;;;;;;1.45;1.33;;;;;;;-141.84;43.72;22003.31;4903883;29;20265;-64
2023/07/13 01:12:17;;;;;;;2.70;1.58;;;;;;;-141.84;43.81;21936.19;4906455;29;20209;-65
2023/07/13 01:14:47;;;;;;;2.08;1.75;;;;;;;-141.84;43.95;21940.25;4892187;29;20675;-63
2023/07/13 01:17:16;;;;;;;3.05;1.77;;;;;;;-141.84;44.38;21924.00;4886815;29;20242;-64
2023/07/13 01:19:46;;;;;;;2.03;1.60;;;;;;;-141.84;44.47;21924.00;4901375;28;20233;-65
2023/07/13 01:22:19;;;;;;;2.13;1.60;;;;;;;-141.84;44.79;21899.59;4904092;29;20326;-64
2023/07/13 01:24:49;;;;;;;2.28;1.40;;;;;;;-141.84;45.17;21842.66;4881872;29;20234;-64
2023/07/13 01:27:21;;;;;;;4.68;1.80;;;;;;;-141.84;45.43;21871.13;4891797;29;20605;-64
2023/07/13 01:29:51;;;;;;;2.53;1.73;;;;;;;-141.84;45.97;21842.66;4907384;29;20232;-65
2023/07/13 01:32:23;;;;;;;1.60;1.50;;;;;;;-141.84;45.92;21838.59;4895108;28;20613;-63
2023/07/13 01:34:54;;;;;;;2.22;1.70;;;;;;;-141.84;46.33;21777.59;4887146;29;20302;-64
2023/07/13 01:37:26;;;;;;;3.53;1.60;;;;;;;-141.84;46.67;21783.69;4887623;29;20230;-64
2023/07/13 01:39:55;;;;;;;2.55;1.67;;;;;;;-141.84;46.39;21804.03;4887675;29;20282;-65
2023/07/13 01:42:23;;;;;;;1.77;1.50;;;;;;;-141.84;46.54;21779.63;4866680;29;21000;-66
2023/07/13 01:44:52;;;;;;;3.00;1.60;;;;;;;-141.84;46.74;21763.34;4869265;29;20712;-64
2023/07/13 01:47:20;;;;;;;2.05;1.58;;;;;;;-141.84;47.08;21749.13;4871394;29;20239;-63
2023/07/13 01:49:50;;;;;;;4.00;1.67;;;;;;;-141.84;47.51;21759.28;4887436;29;20276;-65
2023/07/13 01:52:19;;;;;;;2.22;1.90;;;;;;;-141.84;46.80;21787.75;4888835;29;20727;-64
2023/07/13 01:54:49;;;;;;;2.92;1.65;;;;;;;-141.84;46.90;21773.53;4884911;29;20266;-64
2023/07/13 01:57:17;;;;;;;3.28;1.90;;;;;;;-141.84;46.79;21759.28;4891378;29;20676;-64
2023/07/13 01:59:46;;;;;;;3.15;2.00;;;;;;;-141.84;47.35;21722.69;4891752;29;20210;-64
2023/07/13 02:02:14;;;;;;;3.35;1.85;;;;;;;-141.84;46.92;21751.16;4891014;29;20395;-65
2023/07/13 02:04:43;;;;;;;3.00;1.73;;;;;;;-141.84;47.45;21708.47;4885112;29;20253;-64
2023/07/13 02:07:11;;;;;;;2.75;1.67;;;;;;;-141.84;47.96;21688.13;4890952;29;20610;-64
2023/07/13 02:09:40;;;;;;;3.25;1.83;;;;;;;-141.84;48.12;21680.00;4906536;28;20253;-65
2023/07/13 02:12:10;;;;;;;4.57;2.05;;;;;;;-141.84;47.98;21692.19;4909684;28;20281;-64
2023/07/13 02:14:39;;;;;;;3.50;1.92;;;;;;;-141.84;47.86;21686.09;4896725;28;20297;-63
2023/07/13 02:17:07;;;;;;;3.25;1.90;;;;;;;-141.84;48.64;21667.78;4891047;29;20297;-64
2023/07/13 02:19:36;;;;;;;3.78;1.80;;;;;;;-141.84;48.25;21635.25;4890824;29;20401;-65
2023/07/13 02:22:05;;;;;;;3.58;1.80;;;;;;;-141.84;48.54;21651.53;4890911;29;20329;-64
2023/07/13 02:24:33;;;;;;;2.80;1.80;;;;;;;-141.84;48.81;21635.25;4883803;29;20680;-64
2023/07/13 02:27:02;;;;;;;2.22;1.67;;;;;;;-141.84;48.77;21623.06;4892731;28;20706;-64
2023/07/13 02:29:32;;;;;;;2.22;1.70;;;;;;;-141.84;49.50;21545.78;4891529;28;20727;-64
2023/07/13 02:32:00;;;;;;;3.10;1.70;;;;;;;-141.84;49.07;21614.94;4890425;29;20329;-64
2023/07/13 02:34:29;;;;;;;2.50;1.95;;;;;;;-141.84;48.96;21635.25;4881148;29;20265;-64
2023/07/13 02:37:00;;;;;;;2.83;2.00;;;;;;;-141.84;49.23;21592.56;4881560;29;20242;-65
2023/07/13 02:39:29;;;;;;;5.35;2.10;;;;;;;-141.84;48.64;21667.78;4890632;29;20290;-64
2023/07/13 02:41:57;;;;;;;4.07;2.17;;;;;;;-141.84;49.60;21568.16;4891202;29;20261;-64
2023/07/13 02:44:26;;;;;;;4.00;2.03;;;;;;;-141.84;49.83;21566.13;4902111;29;20269;-64
2023/07/13 02:46:56;;;;;;;2.78;2.30;;;;;;;-141.84;50.25;21486.81;4893932;29;20234;-65
2023/07/13 02:49:25;;;;;;;3.45;2.20;;;;;;;-141.84;50.92;21488.88;4889808;29;20234;-64
2023/07/13 02:51:53;;;;;;;4.72;2.20;;;;;;;-141.84;51.23;21482.75;4890221;29;20322;-63
2023/07/13 02:54:21;;;;;;;2.60;2.22;;;;;;;-141.84;51.88;21476.66;4890429;29;20667;-64
2023/07/13 02:56:50;;;;;;;3.50;2.50;;;;;;;-141.84;51.45;21517.31;4887306;29;20242;-63
2023/07/13 02:59:19;;;;;;;4.18;2.63;;;;;;;-141.84;51.12;21515.28;4890122;29;20266;-63
2023/07/13 03:01:47;;;;;;;3.40;2.40;;;;;;;-141.84;51.36;21480.72;4889888;29;20352;-64
2023/07/13 03:04:19;;;;;;;2.50;2.30;;;;;;;-141.84;52.23;21417.69;4889494;29;20314;-66
2023/07/13 03:06:48;;;;;;;3.42;2.63;;;;;;;-141.84;52.37;21405.50;4865968;29;20250;-65
2023/07/13 03:09:16;;;;;;;3.58;2.38;;;;;;;-141.84;52.81;21421.75;4895797;29;20241;-65
2023/07/13 03:11:45;;;;;;;4.25;2.50;;;;;;;-141.84;52.28;21448.19;4909546;29;20755;-64
2023/07/13 03:14:13;;;;;;;2.38;2.15;;;;;;;-141.84;53.10;21352.63;4905402;29;20233;-64
2023/07/13 03:16:42;;;;;;;3.25;2.35;;;;;;;-141.84;53.46;21387.19;4882523;29;20436;-66
2023/07/13 03:19:10;;;;;;;3.80;2.53;;;;;;;-141.84;53.64;21391.28;4889714;29;20231;-64
2023/07/13 03:21:40;;;;;;;3.35;2.20;;;;;;;-141.84;54.10;21366.88;4889811;29;20271;-66
2023/07/13 03:24:09;;;;;;;4.00;2.70;;;;;;;-141.84;53.57;21395.34;4889618;29;20223;-64
2023/07/13 03:26:37;;;;;;;3.65;2.88;;;;;;;-141.84;53.53;21385.16;4882406;29;20211;-64
2023/07/13 03:29:06;;;;;;;3.63;2.90;;;;;;;-141.84;53.32;21393.31;4907774;29;20726;-63
2023/07/13 03:31:37;;;;;;;2.53;2.33;;;;;;;-141.84;54.22;21370.94;4908498;29;20265;-65
2023/07/13 03:34:05;;;;;;;4.50;2.80;;;;;;;-141.84;53.34;21393.31;4908665;29;20604;-65
2023/07/13 03:36:34;;;;;;;2.90;2.63;;;;;;;-141.84;54.10;21326.22;4864606;29;20836;-64
2023/07/13 03:39:08;;;;;;;4.60;2.60;;;;;;;-141.84;54.55;21324.19;4871120;29;20227;-64
2023/07/13 03:41:37;;;;;;;3.80;2.60;;;;;;;-141.84;54.93;21316.03;4883845;29;20241;-63
2023/07/13 03:44:06;;;;;;;6.95;2.95;;;;;;;-141.84;54.90;21334.34;4889463;29;20239;-64
2023/07/13 03:46:35;;;;;;;5.47;2.95;;;;;;;-141.84;55.09;21320.09;4881157;29;20734;-65
2023/07/13 03:49:05;;;;;;;2.70;2.50;;;;;;;-141.84;54.69;21385.16;4889118;29;20238;-64
2023/07/13 03:51:33;;;;;;;4.05;2.92;;;;;;;-141.84;54.78;21383.13;4889271;29;20282;-64
2023/07/13 03:54:04;;;;;;;3.17;2.50;;;;;;;-141.84;55.18;21340.44;4889575;29;20215;-65
2023/07/13 03:56:32;;;;;;;3.42;2.58;;;;;;;-141.84;55.83;21324.19;4882206;29;20235;-64
2023/07/13 03:59:02;;;;;;;3.00;2.70;;;;;;;-141.84;55.26;21350.59;4889590;29;20338;-64
2023/07/13 04:01:31;;;;;;;4.72;2.88;;;;;;;-141.84;54.92;21368.91;4888894;29;20255;-63
2023/07/13 04:03:59;;;;;;;3.55;2.88;;;;;;;-141.84;55.49;21352.63;4889116;29;20475;-64
2023/07/13 04:06:32;;;;;;;3.47;2.80;;;;;;;-141.84;55.38;21385.16;4863135;29;20238;-64
2023/07/13 04:09:05;;;;;;;5.50;3.10;;;;;;;-141.84;55.12;21415.66;4890884;29;20237;-65
2023/07/13 04:11:36;;;;;;;5.40;2.97;;;;;;;-141.84;54.86;21409.56;4901286;29;20211;-64
2023/07/13 04:14:05;;;;;;;3.33;2.70;;;;;;;-141.84;54.62;21385.16;4889031;29;20238;-63
2023/07/13 04:16:34;;;;;;;4.78;2.72;;;;;;;-141.84;54.62;21444.13;4880241;29;20253;-64
2023/07/13 04:19:03;;;;;;;3.10;2.80;;;;;;;-141.84;54.43;21438.03;4888873;29;20238;-64
2023/07/13 04:21:32;;;;;;;3.65;2.83;;;;;;;-141.84;54.39;21448.19;4888302;28;20761;-63
2023/07/13 04:24:01;;;;;;;4.45;2.72;;;;;;;-141.84;54.45;21452.25;4888683;29;20367;-64
2023/07/13 04:26:31;;;;;;;5.07;2.70;;;;;;;-141.84;54.78;21468.53;4881895;29;20199;-65
2023/07/13 04:29:00;;;;;;;4.10;2.72;;;;;;;-141.84;54.19;21490.91;4905762;29;20234;-64
2023/07/13 04:31:28;;;;;;;6.72;3.03;;;;;;;-141.84;53.48;21529.53;4907732;29;20793;-64
2023/07/13 04:33:57;;;;;;;4.85;2.85;;;;;;;-141.84;53.24;21560.03;4907304;29;20328;-64
2023/07/13 04:36:26;;;;;;;4.72;3.45;;;;;;;-141.84;53.44;21539.69;4866178;29;20241;-66
2023/07/13 04:38:55;;;;;;;3.33;3.03;;;;;;;-141.84;53.72;21480.72;4870450;29;20203;-63
2023/07/13 04:41:24;;;;;;;5.57;3.00;;;;;;;-141.84;53.87;21533.59;4880554;29;20305;-65
2023/07/13 04:43:53;;;;;;;3.28;2.63;;;;;;;-141.84;54.01;21505.13;4888724;29;20330;-65
2023/07/13 04:46:24;;;;;;;3.75;2.90;;;;;;;-141.84;53.99;21517.31;4882588;29;20294;-65
2023/07/13 04:48:54;;;;;;;3.65;2.92;;;;;;;-141.84;53.56;21517.31;4888277;29;20691;-64
2023/07/13 04:51:22;;;;;;;3.38;2.65;;;;;;;-141.84;53.49;21572.22;4887851;29;20252;-64
2023/07/13 04:53:51;;;;;;;4.22;2.80;;;;;;;-141.84;52.44;21637.28;4888129;29;20331;-65
2023/07/13 04:56:26;;;;;;;4.40;3.05;;;;;;;-141.84;52.38;21688.13;4880170;29;20490;-64
2023/07/13 04:58:56;;;;;;;5.50;2.70;;;;;;;-141.84;50.52;21930.09;4888565;29;20241;-64
2023/07/13 05:01:25;;;;;;;3.38;2.47;;;;;;;-141.84;45.78;22458.84;4887889;29;20678;-65
2023/07/13 05:03:55;;;;;;;4.22;2.30;;;;;;;-141.84;41.51;23054.75;4887937;29;20234;-65
2023/07/13 05:06:27;;;;;;;3.92;2.45;;;;;;;-141.84;39.54;23475.84;4861301;29;20242;-65
2023/07/13 05:08:55;;;;;;;2.95;2.50;;;;;;;-141.84;36.84;24027.16;4894930;29;20218;-64
2023/07/13 05:11:24;;;;;;;3.83;2.67;;;;;;;-141.84;35.72;24419.84;4906257;29;20277;-65
2023/07/13 05:13:52;;;;;;;6.85;2.88;;;;;;;-141.84;34.17;24796.31;4906323;29;20258;-65
2023/07/13 05:16:22;;;;;;;3.28;2.10;;;;;;;-141.84;33.67;24963.16;4887502;29;20238;-65
2023/07/13 05:18:50;;;;;;;3.05;2.30;;;;;;;-141.84;33.21;25091.38;4887035;29;20745;-64
2023/07/13 05:21:19;;;;;;;5.75;2.35;;;;;;;-141.84;32.22;25390.56;4887819;29;20248;-65
2023/07/13 05:23:47;;;;;;;2.78;2.03;;;;;;;-141.84;32.03;25557.44;4888153;29;20301;-66
2023/07/13 05:26:16;;;;;;;2.92;2.17;;;;;;;-141.84;32.10;25559.47;4887059;29;20261;-64
2023/07/13 05:28:45;;;;;;;5.22;1.95;;;;;;;-141.84;31.88;25608.34;4895567;29;20305;-64
2023/07/13 05:31:13;;;;;;;3.65;2.08;;;;;;;-141.84;31.45;25638.88;4906693;29;20688;-64
2023/07/13 05:33:44;;;;;;;2.75;1.95;;;;;;;-141.84;32.01;25305.06;4905892;29;20316;-65
2023/07/13 05:36:14;;;;;;;4.00;1.90;;;;;;;-141.84;32.96;25075.09;4875595;29;20262;-65
2023/07/13 05:38:42;;;;;;;6.63;2.13;;;;;;;-141.84;33.09;24920.44;4861599;29;20595;-66
2023/07/13 05:41:11;;;;;;;2.55;2.10;;;;;;;-141.84;34.27;24505.31;4878636;29;20269;-64
2023/07/13 05:43:39;;;;;;;5.13;2.17;;;;;;;-141.84;35.53;23933.56;4887832;29;20234;-65
2023/07/13 05:46:08;;;;;;;4.55;2.50;;;;;;;-141.84;36.87;23547.03;4887215;29;20575;-64
2023/07/13 05:48:36;;;;;;;3.38;2.20;;;;;;;-141.84;38.38;23174.78;4879189;29;20337;-67
2023/07/13 05:51:06;;;;;;;3.70;2.10;;;;;;;-141.84;39.30;23176.81;4887811;29;20309;-64
2023/07/13 05:53:35;;;;;;;3.63;1.85;;;;;;;-141.84;40.43;22955.09;4888028;29;20253;-64
2023/07/13 05:56:04;;;;;;;3.22;2.38;;;;;;;-141.84;40.75;22885.94;4887704;29;20330;-65
2023/07/13 05:58:33;;;;;;;3.97;2.42;;;;;;;-141.84;41.33;22845.25;4880083;29;20612;-64
2023/07/13 06:01:03;;;;;;;2.58;2.10;;;;;;;-141.84;41.40;22887.97;4887543;29;20321;-65
2023/07/13 06:03:32;;;;;;;3.63;2.40;;;;;;;-141.84;41.27;22847.28;4887602;29;20657;-63
2023/07/13 06:06:01;;;;;;;4.18;2.13;;;;;;;-141.84;41.89;22749.66;4871305;29;20609;-64
2023/07/13 06:08:31;;;;;;;3.70;2.30;;;;;;;-141.84;42.18;22780.19;4873554;29;20690;-64
2023/07/13 06:11:08;;;;;;;2.92;2.10;;;;;;;-141.84;42.88;22603.22;4906519;29;20344;-64
2023/07/13 06:13:36;;;;;;;2.30;1.98;;;;;;;-141.84;44.00;22513.75;4895156;29;20237;-64
2023/07/13 06:16:06;;;;;;;2.53;2.22;;;;;;;-141.84;44.10;22572.72;4887708;29;20274;-64
2023/07/13 06:18:36;;;;;;;2.85;2.03;;;;;;;-141.84;43.92;22611.38;4880141;29;20677;-64
2023/07/13 06:21:08;;;;;;;5.50;2.70;;;;;;;-141.84;44.06;22645.94;4887721;29;20303;-64
2023/07/13 06:23:38;;;;;;;4.32;2.60;;;;;;;-141.84;44.23;22615.44;4888038;29;20210;-65
2023/07/13 06:26:08;;;;;;;5.35;2.80;;;;;;;-141.84;44.71;22609.34;4887482;29;20829;-65
2023/07/13 06:28:39;;;;;;;4.28;2.88;;;;;;;-141.84;44.36;22627.63;4893738;29;20316;-64
2023/07/13 06:31:09;;;;;;;6.68;2.88;;;;;;;-141.84;44.35;22672.38;4906162;29;20710;-64
2023/07/13 06:33:39;;;;;;;4.10;2.20;;;;;;;-141.84;43.35;22698.81;4906134;29;20802;-65
2023/07/13 06:36:09;;;;;;;4.45;2.33;;;;;;;-141.84;43.02;22717.13;4876824;29;20326;-64
2023/07/13 06:38:39;;;;;;;6.00;2.75;;;;;;;-141.84;43.64;22674.41;4862993;29;20558;-65
2023/07/13 06:41:08;;;;;;;3.90;2.60;;;;;;;-141.84;43.26;22682.56;4880485;29;20790;-64
2023/07/13 06:43:38;;;;;;;3.47;2.45;;;;;;;-141.84;43.14;22723.22;4891879;29;20250;-66
2023/07/13 06:46:06;;;;;;;4.03;2.20;;;;;;;-141.84;42.70;22749.66;4891983;29;20261;-65
2023/07/13 06:48:35;;;;;;;6.40;2.20;;;;;;;-141.84;42.58;22711.03;4884736;29;20266;-65
2023/07/13 06:51:04;;;;;;;6.18;2.53;;;;;;;-141.84;42.86;22731.38;4891820;29;20242;-65
2023/07/13 06:53:32;;;;;;;4.30;2.60;;;;;;;-141.84;43.19;22729.34;4892117;29;20254;-64
2023/07/13 06:56:02;;;;;;;3.00;1.95;;;;;;;-141.84;40.67;22818.81;4891055;29;20313;-63
2023/07/13 06:58:31;;;;;;;2.88;2.17;;;;;;;-141.84;41.16;22839.16;4885308;29;20638;-66
2023/07/13 07:00:59;;;;;;;3.78;1.85;;;;;;;-141.84;40.25;23054.75;4891581;29;20269;-65
2023/07/13 07:03:28;;;;;;;4.35;2.17;;;;;;;-141.84;39.73;23038.50;4891989;29;20223;-65
2023/07/13 07:06:02;;;;;;;4.78;2.10;;;;;;;-141.84;39.62;23056.81;4879041;29;20834;-63
2023/07/13 07:08:30;;;;;;;3.15;2.05;;;;;;;-141.84;39.69;23034.44;4877997;29;20218;-65
2023/07/13 07:10:59;;;;;;;4.28;2.47;;;;;;;-141.84;40.80;22843.22;4891725;29;20640;-64
2023/07/13 07:13:30;;;;;;;3.65;2.13;;;;;;;-141.84;41.53;22808.66;4902844;29;20328;-64
2023/07/13 07:16:00;;;;;;;3.50;2.13;;;;;;;-141.84;41.26;22814.75;4893690;29;20262;-65
2023/07/13 07:18:28;;;;;;;3.35;2.17;;;;;;;-141.84;41.32;22790.34;4884575;29;20290;-65
2023/07/13 07:20:57;;;;;;;3.08;2.10;;;;;;;-141.84;42.41;22680.53;4892733;29;20235;-64
2023/07/13 07:23:25;;;;;;;4.03;2.28;;;;;;;-141.84;42.28;22782.22;4910738;29;20300;-64
2023/07/13 07:25:54;;;;;;;9.48;2.50;;;;;;;-141.84;41.20;22774.06;4910620;29;20237;-64
2023/07/13 07:28:23;;;;;;;5.75;2.50;;;;;;;-141.84;41.72;22711.03;4922180;28;20260;-66
2023/07/13 07:30:57;;;;;;;3.45;2.45;;;;;;;-141.84;41.72;22696.78;4933857;28;20264;-65
2023/07/13 07:33:28;;;;;;;4.57;2.30;;;;;;;-141.84;41.94;22721.19;4932349;28;20650;-64
2023/07/13 07:35:57;;;;;;;2.80;2.03;;;;;;;-141.84;41.41;22751.69;4902436;29;20237;-63
2023/07/13 07:38:28;;;;;;;4.47;2.17;;;;;;;-141.84;41.46;22709.00;4884602;29;20349;-65
2023/07/13 07:40:57;;;;;;;4.18;2.10;;;;;;;-141.84;41.68;22650.00;4898938;29;20693;-64
2023/07/13 07:43:29;;;;;;;3.90;2.20;;;;;;;-141.84;41.69;22643.91;4912080;29;20257;-65
2023/07/13 07:45:59;;;;;;;4.32;2.10;;;;;;;-141.84;41.77;22678.47;4909520;29;20737;-65
2023/07/13 07:48:30;;;;;;;2.05;1.67;;;;;;;-141.84;41.40;22627.63;4902901;29;20293;-64
2023/07/13 07:50:59;;;;;;;3.72;1.98;;;;;;;-141.84;41.10;22625.59;4909228;29;20242;-64
2023/07/13 07:53:28;;;;;;;3.78;2.30;;;;;;;-141.84;41.21;22578.81;4910124;28;20632;-64
2023/07/13 07:55:58;;;;;;;2.90;1.80;;;;;;;-141.84;40.03;22658.16;4909705;28;20320;-64
2023/07/13 07:58:46;;;;;;;3.03;1.80;;;;;;;-141.84;39.71;22658.16;4883515;29;20610;-65
2023/07/13 08:01:19;;;;;;;4.75;2.97;;;;;;;-141.84;40.10;22676.44;4893804;29;20254;-64
2023/07/13 08:03:50;;;;;;;3.58;1.80;;;;;;;-141.84;39.66;22696.78;4893655;29;20314;-65
2023/07/13 08:06:22;;;;;;;2.90;1.67;;;;;;;-141.84;39.59;22786.28;4892228;29;20743;-65
2023/07/13 08:08:54;;;;;;;3.67;1.80;;;;;;;-141.84;38.48;22922.56;4915123;28;20760;-65
2023/07/13 08:11:23;;;;;;;5.40;2.00;;;;;;;-141.84;37.40;23042.56;4928291;28;20241;-65
2023/07/13 08:13:55;;;;;;;3.38;1.55;;;;;;;-141.84;37.62;23001.88;4929101;28;20798;-65
2023/07/13 08:16:25;;;;;;;3.67;1.50;;;;;;;-141.84;37.95;22951.03;4907740;29;20301;-64
2023/07/13 08:18:54;;;;;;;3.22;1.90;;;;;;;-141.84;38.17;22971.38;4909682;29;20706;-64
2023/07/13 08:21:23;;;;;;;2.42;1.63;;;;;;;-141.84;38.00;22908.31;4908934;28;20309;-65
2023/07/13 08:23:51;;;;;;;4.57;1.88;;;;;;;-141.84;38.64;22798.47;4909271;29;20216;-65
2023/07/13 08:26:20;;;;;;;4.60;1.98;;;;;;;-141.84;38.93;22810.69;4909393;29;20237;-66
2023/07/13 08:28:48;;;;;;;2.30;1.70;;;;;;;-141.84;38.34;22802.56;4919232;28;20245;-64
2023/07/13 08:31:17;;;;;;;5.10;1.60;;;;;;;-141.84;38.41;22739.50;4927348;28;20348;-65
2023/07/13 08:33:47;;;;;;;4.15;1.60;;;;;;;-141.84;38.19;22723.22;4927596;28;20229;-66
2023/07/13 08:36:15;;;;;;;3.47;1.70;;;;;;;-141.84;37.86;22749.66;4896181;29;20818;-66
2023/07/13 08:38:44;;;;;;;2.67;1.65;;;;;;;-141.84;37.78;22755.78;4883058;29;20643;-65
2023/07/13 08:41:15;;;;;;;4.10;1.70;;;;;;;-141.84;38.47;22709.00;4899501;29;20694;-65
2023/07/13 08:43:48;;;;;;;3.88;2.00;;;;;;;-141.84;38.65;22784.25;4908724;29;20258;-65
2023/07/13 08:46:20;;;;;;;3.28;2.05;;;;;;;-141.84;37.81;22761.88;4908521;28;20233;-64
2023/07/13 08:48:53;;;;;;;2.85;1.45;;;;;;;-141.84;38.10;22743.56;4904562;28;20296;-64
2023/07/13 08:51:42;;;;;;;3.33;1.75;;;;;;;-141.84;37.61;22774.06;4908233;28;20321;-67
2023/07/13 08:54:22;;;;;;;2.58;1.60;;;;;;;-141.84;37.64;22804.59;4908469;29;20245;-64
2023/07/13 08:56:54;;;;;;;3.45;1.75;;;;;;;-141.84;37.59;22857.47;4906258;29;20260;-65
2023/07/13 08:59:26;;;;;;;3.22;1.63;;;;;;;-141.84;37.02;22824.94;4908392;29;20281;-65
2023/07/13 09:02:22;;;;;;;3.08;1.60;;;;;;;-141.84;37.75;22871.72;4908255;29;20625;-64
2023/07/13 09:04:57;;;;;;;5.10;1.50;;;;;;;-141.84;36.73;23010.00;4900948;29;20270;-65
2023/07/13 09:07:35;;;;;;;2.85;1.50;;;;;;;-141.84;36.88;23020.19;4889787;29;20240;-65
2023/07/13 09:10:14;;;;;;;2.78;1.75;;;;;;;-141.84;36.30;23071.03;4926801;28;20237;-65
2023/07/13 09:12:54;;;;;;;4.88;1.77;;;;;;;-141.84;36.35;23083.25;4920936;28;20534;-65
2023/07/13 09:15:30;;;;;;;6.43;1.80;;;;;;;-141.84;36.15;23117.81;4915369;29;20260;-65
2023/07/13 09:18:04;;;;;;;3.13;1.67;;;;;;;-141.84;36.48;23136.13;4909101;29;20344;-66
2023/07/13 09:20:38;;;;;;;3.15;1.70;;;;;;;-141.84;36.38;23166.63;4901258;28;20261;-64
2023/07/13 09:23:14;;;;;;;3.72;1.90;;;;;;;-141.84;37.23;22995.78;4908475;29;20744;-65
2023/07/13 09:25:46;;;;;;;3.42;1.60;;;;;;;-141.84;37.78;22900.19;4908765;29;20801;-65
2023/07/13 09:28:21;;;;;;;2.80;1.60;;;;;;;-141.84;37.88;22910.34;4919291;28;20240;-65
2023/07/13 09:30:55;;;;;;;3.50;1.80;;;;;;;-141.84;37.23;22963.22;4924658;28;20241;-66
2023/07/13 09:33:24;;;;;;;4.47;1.63;;;;;;;-141.84;36.28;23097.47;4927738;28;20303;-67
2023/07/13 09:35:53;;;;;;;4.32;1.92;;;;;;;-141.84;35.93;23223.59;4901896;29;20222;-66
2023/07/13 09:38:26;;;;;;;3.45;1.95;;;;;;;-141.84;34.83;23359.88;4889517;29;20270;-65
2023/07/13 09:41:12;;;;;;;3.25;1.75;;;;;;;-141.84;34.63;23477.88;4900051;29;20240;-66
2023/07/13 09:44:01;;;;;;;2.70;1.60;;;;;;;-141.84;34.22;23490.06;4908286;29;20230;-65
2023/07/13 09:46:29;;;;;;;4.38;1.85;;;;;;;-141.84;33.86;23675.19;4901328;29;20289;-66
2023/07/13 09:48:58;;;;;;;3.97;2.25;;;;;;;-141.84;33.95;23571.44;4908389;29;20260;-65
2023/07/13 09:51:28;;;;;;;3.38;1.98;;;;;;;-141.84;33.71;23557.22;4907443;28;20249;-65
2023/07/13 09:53:57;;;;;;;4.25;1.88;;;;;;;-141.84;34.08;23538.91;4908638;29;20209;-64
2023/07/13 09:56:29;;;;;;;2.15;1.70;;;;;;;-141.84;33.41;23663.00;4903319;28;20940;-65
2023/07/13 09:58:59;;;;;;;2.20;1.65;;;;;;;-141.84;32.72;23770.81;4908304;29;20320;-65
2023/07/13 10:01:35;;;;;;;4.45;1.70;;;;;;;-141.84;32.73;23821.69;4907459;29;20238;-65
2023/07/13 10:04:13;;;;;;;7.47;2.10;;;;;;;-141.84;32.78;23797.25;4907009;29;20452;-64
2023/07/13 10:06:43;;;;;;;4.18;1.65;;;;;;;-141.84;33.07;23709.78;4888166;29;20474;-65
2023/07/13 10:09:16;;;;;;;3.58;1.85;;;;;;;-141.84;33.56;23742.34;4907555;29;20620;-66
2023/07/13 10:11:45;;;;;;;3.60;1.90;;;;;;;-141.84;33.79;23628.41;4908280;29;20257;-65
2023/07/13 10:14:17;;;;;;;5.22;1.73;;;;;;;-141.84;33.36;23626.38;4907656;29;20317;-65
2023/07/13 10:16:48;;;;;;;4.53;1.83;;;;;;;-141.84;33.63;23614.16;4885119;29;20285;-65
2023/07/13 10:19:22;;;;;;;4.93;1.75;;;;;;;-141.84;34.20;23392.44;4893011;29;20239;-66
2023/07/13 10:21:56;;;;;;;3.97;1.83;;;;;;;-141.84;35.72;23219.53;4892981;29;20269;-65
2023/07/13 10:24:26;;;;;;;2.60;1.95;;;;;;;-141.84;36.01;23160.53;4886606;29;20230;-66
2023/07/13 10:27:03;;;;;;;3.08;1.80;;;;;;;-141.84;35.73;23164.59;4893940;29;20249;-65
2023/07/13 10:29:35;;;;;;;3.00;1.77;;;;;;;-141.84;36.34;23162.56;4930386;28;20347;-65
2023/07/13 10:32:10;;;;;;;2.40;1.95;;;;;;;-141.84;36.25;23205.28;4914126;29;20293;-65
2023/07/13 10:34:40;;;;;;;3.70;1.90;;;;;;;-141.84;35.48;23152.41;4898630;29;20270;-65
2023/07/13 10:37:21;;;;;;;3.20;1.98;;;;;;;-141.84;35.91;23199.19;4883430;28;20241;-65
2023/07/13 10:39:54;;;;;;;3.70;2.00;;;;;;;-141.84;36.13;23142.22;4892123;29;20274;-65
2023/07/13 10:42:33;;;;;;;5.00;2.10;;;;;;;-141.84;36.28;23158.50;4891985;29;20253;-66
2023/07/13 10:45:01;;;;;;;2.47;1.67;;;;;;;-141.84;35.71;23101.53;4891646;29;20307;-65
2023/07/13 10:47:31;;;;;;;5.20;1.92;;;;;;;-141.84;36.22;23109.69;4892684;29;20218;-64
2023/07/13 10:50:01;;;;;;;4.20;1.90;;;;;;;-141.84;36.46;23040.53;4892290;29;20678;-65
2023/07/13 10:52:50;;;;;;;2.97;1.85;;;;;;;-141.84;36.51;23103.59;4885158;29;20261;-65
2023/07/13 10:55:36;;;;;;;2.20;1.70;;;;;;;-141.84;36.13;23138.16;4892144;29;20319;-65
2023/07/13 10:58:19;;;;;;;2.95;1.60;;;;;;;-141.84;35.07;23219.53;4891662;29;20234;-65
2023/07/13 11:00:50;;;;;;;1.80;1.60;;;;;;;-141.84;34.54;23288.69;4886149;29;20979;-65
2023/07/13 11:03:22;;;;;;;3.28;1.60;;;;;;;-141.84;34.70;23376.16;4892481;29;20210;-65
2023/07/13 11:05:52;;;;;;;2.13;1.80;;;;;;;-141.84;34.32;23408.72;4879860;29;20230;-65
2023/07/13 11:08:36;;;;;;;3.15;1.80;;;;;;;-141.84;34.15;23420.91;4882923;29;20226;-65
2023/07/13 11:11:31;;;;;;;3.63;1.50;;;;;;;-141.84;32.68;23384.28;4910663;28;20238;-65
2023/07/13 11:14:06;;;;;;;2.05;1.33;;;;;;;-141.84;32.77;23443.28;4909026;29;20301;-65
2023/07/13 11:16:46;;;;;;;2.13;1.20;;;;;;;-141.84;32.47;23583.66;4884672;29;20790;-65
2023/07/13 11:19:42;;;;;;;1.92;1.30;;;;;;;-141.84;32.00;23589.75;4890938;29;20751;-66
2023/07/13 11:22:16;;;;;;;2.83;1.50;;;;;;;-141.84;32.41;23559.25;4878584;29;20722;-65
2023/07/13 11:25:22;;;;;;;3.83;1.30;;;;;;;-141.84;32.39;23439.22;4884637;29;20313;-65
2023/07/13 11:28:04;;;;;;;2.25;1.15;;;;;;;-141.84;32.70;23335.47;4899428;29;20313;-64
2023/07/13 11:30:39;;;;;;;2.38;1.05;;;;;;;-141.84;32.40;23315.13;4903359;29;20305;-65
2023/07/13 11:33:20;;;;;;;3.25;1.40;;;;;;;-141.84;32.46;23384.28;4901395;29;20225;-65
2023/07/13 11:35:58;;;;;;;4.63;1.60;;;;;;;-141.84;32.26;23427.00;4892103;29;20257;-65